createdAt,value
2023-05-07T00:04:03.423Z,18.90
2023-05-07T00:09:06.486Z,18.80
2023-05-07T00:14:10.652Z,19.85
2023-05-07T00:19:13.616Z,20.75
2023-05-07T00:24:16.378Z,19.33
2023-05-07T00:29:20.973Z,18.40
2023-05-07T00:34:23.931Z,18.00
2023-05-07T00:39:26.680Z,18.70
2023-05-07T00:44:31.119Z,20.02
2023-05-07T00:49:39.804Z,19.23
2023-05-07T00:54:43.575Z,20.02
2023-05-07T00:59:47.713Z,19.10
2023-05-07T01:04:50.510Z,18.83
2023-05-07T01:09:54.332Z,19.83
2023-05-07T01:14:58.790Z,20.05
2023-05-07T01:20:01.815Z,20.90
2023-05-07T01:25:08.252Z,19.77
2023-05-07T01:30:13.983Z,19.58
2023-05-07T01:35:21.286Z,20.05
2023-05-07T01:40:26.799Z,21.45
2023-05-07T01:45:30.130Z,20.23
2023-05-07T01:50:34.702Z,21.42
2023-05-07T01:55:38.806Z,21.48
2023-05-07T02:00:42.240Z,21.70
2023-05-07T02:05:45.327Z,21.83
2023-05-07T02:10:56.952Z,21.10
2023-05-07T02:16:01.174Z,22.35
2023-05-07T02:21:04.794Z,22.10
2023-05-07T02:26:08.873Z,21.42
2023-05-07T02:31:11.864Z,22.48
2023-05-07T02:36:15.016Z,21.02
2023-05-07T02:41:29.302Z,21.42
2023-05-07T02:46:32.446Z,22.90
2023-05-07T02:51:43.807Z,23.40
2023-05-07T02:56:54.573Z,22.48
2023-05-07T03:01:57.422Z,22.55
2023-05-07T03:07:00.455Z,24.27
2023-05-07T03:12:04.683Z,23.75
2023-05-07T03:17:08.153Z,22.63
2023-05-07T03:22:10.945Z,23.13
2023-05-07T03:27:15.075Z,23.33
2023-05-07T03:32:18.770Z,23.20
2023-05-07T03:37:22.692Z,23.35
2023-05-07T03:42:27.401Z,24.35
2023-05-07T03:47:30.232Z,23.90
2023-05-07T03:52:33.237Z,22.60
2023-05-07T03:57:40.745Z,24.52
2023-05-07T04:02:43.922Z,24.38
2023-05-07T04:07:47.123Z,24.13
2023-05-07T04:12:54.700Z,24.27
2023-05-07T04:17:59.230Z,23.85
2023-05-07T04:23:02.397Z,25.83
2023-05-07T04:28:07.854Z,24.38
2023-05-07T04:33:11.498Z,27.85
2023-05-07T04:38:17.395Z,28.02
2023-05-07T04:43:22.529Z,24.98
2023-05-07T04:48:27.466Z,27.40
2023-05-07T04:53:30.836Z,26.30
2023-05-07T04:58:36.316Z,26.33
2023-05-07T05:03:40.391Z,27.35
2023-05-07T05:08:44.342Z,25.15
2023-05-07T05:13:49.909Z,26.35
2023-05-07T05:18:56.076Z,26.52
2023-05-07T05:23:58.915Z,27.08
2023-05-07T05:29:03.646Z,26.23
2023-05-07T05:34:08.263Z,25.55
2023-05-07T05:39:12.200Z,24.77
2023-05-07T05:44:16.410Z,24.50
2023-05-07T05:49:19.775Z,24.80
2023-05-07T05:54:22.646Z,24.40
2023-05-07T05:59:27.375Z,23.88
2023-05-07T06:04:30.614Z,23.92
2023-05-07T06:09:34.339Z,23.45
2023-05-07T06:14:39.115Z,24.00
2023-05-07T06:19:41.866Z,22.17
2023-05-07T06:24:46.053Z,21.60
2023-05-07T06:29:51.490Z,21.02
2023-05-07T06:34:54.534Z,20.67
2023-05-07T06:39:59.375Z,20.85
2023-05-07T06:45:05.552Z,20.95
2023-05-07T06:50:10.917Z,21.85
2023-05-07T06:55:15.093Z,19.90
2023-05-07T07:00:20.663Z,18.60
2023-05-07T07:05:28.443Z,19.52
2023-05-07T07:10:31.643Z,19.98
2023-05-07T07:15:35.915Z,17.00
2023-05-07T07:20:39.482Z,17.63
2023-05-07T07:25:44.392Z,17.27
2023-05-07T07:30:49.374Z,16.92
2023-05-07T07:35:53.095Z,14.77
2023-05-07T07:40:56.039Z,13.63
2023-05-07T07:46:01.647Z,14.60
2023-05-07T07:51:05.809Z,14.23
2023-05-07T07:56:09.214Z,13.85
2023-05-07T08:01:13.886Z,14.07
2023-05-07T08:06:18.432Z,13.40
2023-05-07T08:11:22.301Z,13.07
2023-05-07T08:16:26.998Z,12.88
2023-05-07T08:21:30.961Z,12.43
2023-05-07T08:26:36.887Z,12.60
2023-05-07T08:31:41.449Z,11.82
2023-05-07T08:36:44.492Z,11.77
2023-05-07T08:41:57.821Z,12.18
2023-05-07T08:47:04.198Z,11.50
2023-05-07T08:52:09.987Z,11.68
2023-05-07T08:57:13.939Z,11.02
2023-05-07T09:02:19.184Z,11.98
2023-05-07T09:07:22.707Z,11.73
2023-05-07T09:12:25.737Z,10.98
2023-05-07T09:17:30.245Z,10.98
2023-05-07T09:22:34.204Z,10.80
2023-05-07T09:27:41.440Z,10.27
2023-05-07T09:32:46.229Z,11.95
2023-05-07T09:37:55.867Z,10.15
2023-05-07T09:43:11.196Z,10.02
2023-05-07T09:48:20.471Z,11.00
2023-05-07T09:53:25.815Z,10.38
2023-05-07T09:58:30.928Z,10.23
2023-05-07T10:03:37.465Z,9.27
2023-05-07T10:08:42.255Z,8.57
2023-05-07T10:13:45.625Z,9.23
2023-05-07T10:18:51.868Z,8.82
2023-05-07T10:24:01.460Z,9.82
2023-05-07T10:29:14.054Z,11.38
2023-05-07T10:34:22.491Z,8.57
2023-05-07T10:39:25.641Z,10.60
2023-05-07T10:44:29.865Z,9.10
2023-05-07T10:49:39.541Z,7.55
2023-05-07T10:54:45.597Z,6.95
2023-05-07T10:59:50.955Z,7.63
2023-05-07T11:05:24.012Z,7.18
2023-05-07T11:10:53.651Z,7.10
2023-05-07T11:21:39.389Z,6.68
2023-05-07T11:26:52.396Z,7.15
2023-05-07T11:31:58.802Z,5.57
2023-05-07T11:37:07.736Z,6.28
2023-05-07T11:42:30.474Z,5.93
2023-05-07T11:47:33.303Z,6.25
2023-05-07T11:52:39.190Z,4.97
2023-05-07T11:57:42.908Z,5.15
2023-05-07T12:02:47.463Z,5.50
2023-05-07T12:07:58.337Z,5.03
2023-05-07T12:13:01.242Z,5.05
2023-05-07T12:18:04.113Z,5.22
2023-05-07T12:23:08.326Z,4.88
2023-05-07T12:28:15.331Z,4.80
2023-05-07T12:38:24.938Z,5.30
2023-05-07T12:43:28.998Z,5.00
2023-05-07T12:48:31.943Z,5.50
2023-05-07T12:53:43.142Z,4.88
2023-05-07T12:58:45.834Z,5.25
2023-05-07T13:03:51.265Z,5.25
2023-05-07T13:08:55.664Z,4.72
2023-05-07T13:13:58.700Z,5.78
2023-05-07T13:19:01.482Z,7.70
2023-05-07T13:24:05.961Z,6.45
2023-05-07T13:29:08.699Z,16.45
2023-05-07T13:34:11.638Z,5.80
2023-05-07T13:39:15.762Z,7.05
2023-05-07T13:44:18.511Z,6.40
2023-05-07T13:49:21.444Z,5.60
2023-05-07T13:54:25.553Z,6.80
2023-05-07T13:59:28.373Z,7.15
2023-05-07T14:04:32.420Z,6.15
2023-05-07T14:09:36.480Z,5.93
2023-05-07T14:14:39.186Z,5.80
2023-05-07T14:19:41.897Z,5.72
2023-05-07T14:24:48.527Z,6.18
2023-05-07T14:29:55.919Z,6.32
2023-05-07T14:34:58.711Z,5.88
2023-05-07T14:40:03.538Z,4.97
2023-05-07T14:45:07.405Z,6.93
2023-05-07T14:50:10.999Z,6.50
2023-05-07T14:55:16.450Z,5.88
2023-05-07T15:00:19.596Z,6.05
2023-05-07T15:05:22.340Z,4.93
2023-05-07T15:10:26.496Z,6.22
2023-05-07T15:15:29.249Z,6.07
2023-05-07T15:20:32.397Z,6.75
2023-05-07T15:25:36.680Z,6.90
2023-05-07T15:30:39.529Z,6.60
2023-05-07T15:35:42.361Z,6.10
2023-05-07T15:40:46.458Z,6.53
2023-05-07T15:45:49.265Z,6.28
2023-05-07T15:50:52.453Z,6.40
2023-05-07T15:55:56.660Z,6.78
2023-05-07T16:00:59.400Z,6.68
2023-05-07T16:06:02.406Z,6.57
2023-05-07T16:11:06.549Z,6.93
2023-05-07T16:16:09.493Z,7.32
2023-05-07T16:21:12.889Z,6.38
2023-05-07T16:26:17.871Z,6.93
2023-05-07T16:31:20.813Z,10.95
2023-05-07T16:36:23.679Z,12.63
2023-05-07T16:41:27.863Z,8.45
2023-05-07T16:46:30.836Z,8.63
2023-05-07T16:51:34.877Z,8.45
2023-05-07T16:56:39.553Z,8.93
2023-05-07T17:01:42.781Z,9.02
2023-05-07T17:06:46.076Z,8.93
2023-05-07T17:11:50.219Z,9.27
2023-05-07T17:16:52.960Z,9.90
2023-05-07T17:21:55.702Z,10.52
2023-05-07T17:26:59.785Z,12.48
2023-05-07T17:32:02.569Z,10.18
2023-05-07T17:37:05.476Z,10.20
2023-05-07T17:42:09.618Z,10.63
2023-05-07T17:47:14.106Z,11.38
2023-05-07T17:52:17.084Z,11.93
2023-05-07T17:57:22.147Z,12.23
2023-05-07T18:02:25.157Z,11.35
2023-05-07T18:07:28.013Z,12.10
2023-05-07T18:12:32.182Z,12.88
2023-05-07T18:17:35.108Z,12.80
2023-05-07T18:22:38.302Z,13.55
2023-05-07T18:27:42.456Z,14.05
2023-05-07T18:32:45.314Z,14.10
2023-05-07T18:37:48.154Z,14.30
2023-05-07T18:42:52.378Z,14.40
2023-05-07T18:47:55.238Z,14.15
2023-05-07T18:52:58.079Z,14.70
2023-05-07T18:58:02.266Z,14.75
2023-05-07T19:03:05.693Z,15.00
2023-05-07T19:08:08.577Z,15.85
2023-05-07T19:13:12.971Z,15.50
2023-05-07T19:18:16.153Z,15.95
2023-05-07T19:23:19.073Z,16.98
2023-05-07T19:28:23.332Z,15.88
2023-05-07T19:33:26.857Z,15.57
2023-05-07T19:38:29.666Z,16.23
2023-05-07T19:43:36.091Z,16.52
2023-05-07T19:48:39.077Z,15.65
2023-05-07T19:53:41.899Z,16.75
2023-05-07T19:58:46.065Z,16.17
2023-05-07T20:03:49.042Z,16.48
2023-05-07T20:08:52.181Z,16.33
2023-05-07T20:13:56.378Z,16.40
2023-05-07T20:18:59.208Z,16.17
2023-05-07T20:24:02.095Z,16.25
2023-05-07T20:29:06.272Z,16.67
2023-05-07T20:34:09.156Z,14.48
2023-05-07T20:39:14.582Z,14.30
2023-05-07T20:44:19.037Z,14.52
2023-05-07T20:49:23.101Z,14.38
2023-05-07T20:54:28.055Z,13.80
2023-05-07T20:59:34.775Z,14.38
2023-05-07T21:04:37.715Z,14.35
2023-05-07T21:09:40.556Z,15.07
2023-05-07T21:14:44.763Z,14.25
2023-05-07T21:19:48.263Z,13.48
2023-05-07T21:24:51.074Z,14.18
2023-05-07T21:29:58.661Z,14.50
2023-05-07T21:35:01.677Z,14.10
2023-05-07T21:40:05.086Z,12.98
2023-05-07T21:45:10.346Z,13.68
2023-05-07T21:50:13.445Z,12.95
2023-05-07T21:55:18.345Z,13.02
2023-05-07T22:00:23.643Z,12.85
2023-05-07T22:05:26.525Z,12.57
2023-05-07T22:10:29.493Z,12.00
2023-05-07T22:15:37.366Z,11.80
2023-05-07T22:20:45.425Z,11.25
2023-05-07T22:25:48.243Z,11.35
2023-05-07T22:30:52.670Z,13.52
2023-05-07T22:35:55.580Z,12.02
2023-05-07T22:40:59.719Z,11.48
2023-05-07T22:46:04.015Z,11.82
2023-05-07T22:51:06.978Z,12.52
2023-05-07T22:56:10.673Z,12.35
2023-05-07T23:01:16.175Z,11.38
2023-05-07T23:06:19.146Z,11.68
2023-05-07T23:11:22.322Z,11.27
2023-05-07T23:16:26.492Z,10.55
2023-05-07T23:21:29.371Z,11.00
2023-05-07T23:26:32.147Z,10.45
2023-05-07T23:31:36.424Z,9.95
2023-05-07T23:36:39.308Z,9.60
2023-05-07T23:41:42.118Z,9.82
2023-05-07T23:46:46.446Z,9.65
2023-05-07T23:51:49.303Z,9.68
2023-05-07T23:56:52.451Z,9.35
